Time;durP1;ratioP1;P1;durP2;ratioP2;P2;SDS_P1;SDS_P2;PMS_P1;PMS_P2;Temp;Humidity;BMP_temperature;BMP_pressure;BME280_temperature;BME280_humidity;BME280_pressure;Samples;Min_cycle;Max_cycle;Signal;HPM_P1;HPM_P2
2022/01/29 00:01:03;;;;;;;;;48.50;38.25;;;;;2.80;77.14;102427.19;5057374;28;45509;-73
2022/01/29 00:03:31;;;;;;;;;35.50;30.00;;;;;2.80;77.00;102424.59;5057376;28;45500;-74
2022/01/29 00:05:58;;;;;;;;;35.50;33.25;;;;;2.80;77.57;102427.19;5057411;28;45389;-74
2022/01/29 00:08:24;;;;;;;;;33.75;30.75;;;;;2.81;77.33;102423.84;5057184;28;45392;-74
2022/01/29 00:10:55;;;;;;;;;35.00;30.75;;;;;2.62;77.68;102389.38;5057071;28;45315;-74
2022/01/29 00:13:20;;;;;;;;;35.50;28.00;;;;;2.51;77.97;102370.34;5055922;28;45440;-75
2022/01/29 00:15:46;;;;;;;;;21.50;17.50;;;;;2.44;77.75;102357.63;5057366;28;45450;-74
2022/01/29 00:18:11;;;;;;;;;42.50;35.25;;;;;1.66;78.01;102212.16;5057037;28;45933;-75
2022/01/29 00:20:38;;;;;;;;;30.00;26.50;;;;;2.64;77.73;102401.63;5047341;28;45386;-74
2022/01/29 00:23:04;;;;;;;;;24.75;24.00;;;;;2.53;77.18;102390.34;5057107;28;45481;-74
2022/01/29 00:25:30;;;;;;;;;51.50;42.50;;;;;1.97;77.16;102300.94;5056811;28;45548;-74
2022/01/29 00:27:57;;;;;;;;;49.25;43.50;;;;;2.46;77.31;102393.13;5056672;28;45504;-73
2022/01/29 00:30:29;;;;;;;;;48.00;40.25;;;;;2.16;77.32;102350.84;5056648;28;45497;-73
2022/01/29 00:32:55;;;;;;;;;45.00;39.50;;;;;2.54;77.41;102419.63;5054302;28;45397;-74
2022/01/29 00:35:20;;;;;;;;;46.00;36.50;;;;;2.51;77.54;102417.69;5056797;28;45361;-74
2022/01/29 00:37:47;;;;;;;;;49.50;40.25;;;;;2.50;77.28;102414.94;5056591;28;46135;-74
2022/01/29 00:40:14;;;;;;;;;38.75;33.00;;;;;2.49;77.83;102416.63;5057068;28;45567;-74
2022/01/29 00:42:41;;;;;;;;;32.75;26.75;;;;;2.49;77.05;102408.91;5056781;28;45610;-73
2022/01/29 00:45:07;;;;;;;;;32.25;27.25;;;;;2.44;77.02;102397.22;5056784;28;45388;-74
2022/01/29 00:47:33;;;;;;;;;41.00;31.25;;;;;2.44;76.63;102402.38;5056413;28;45516;-74
2022/01/29 00:49:59;;;;;;;;;34.75;28.50;;;;;2.46;76.56;102406.03;5056387;28;45422;-74
2022/01/29 00:52:24;;;;;;;;;33.50;27.25;;;;;2.44;77.06;102404.97;5056741;28;45477;-74
2022/01/29 00:54:50;;;;;;;;;34.25;25.75;;;;;2.16;77.27;102356.00;5056603;28;45444;-74
2022/01/29 00:57:16;;;;;;;;;28.25;23.50;;;;;2.34;77.33;102390.31;5056814;28;45437;-73
2022/01/29 00:59:42;;;;;;;;;34.50;26.75;;;;;2.30;77.36;102385.63;5056613;28;45386;-73
2022/01/29 01:02:09;;;;;;;;;32.50;30.25;;;;;2.37;78.05;102395.78;5056398;28;45479;-74
2022/01/29 01:04:38;;;;;;;;;33.25;29.25;;;;;2.35;77.76;102394.72;5053954;28;45433;-73
2022/01/29 01:07:05;;;;;;;;;41.00;35.25;;;;;2.41;77.95;102412.44;5056021;28;46579;-73
2022/01/29 01:09:31;;;;;;;;;48.00;41.00;;;;;2.36;77.76;102409.41;5056135;28;45378;-74
2022/01/29 01:11:56;;;;;;;;;43.75;35.75;;;;;1.30;77.54;102220.84;5056224;28;45537;-74
2022/01/29 01:14:22;;;;;;;;;32.50;30.50;;;;;2.28;77.32;102412.06;5056538;28;45548;-74
2022/01/29 01:16:47;;;;;;;;;38.50;31.75;;;;;2.24;77.88;102403.13;5055888;28;46077;-74
2022/01/29 01:19:13;;;;;;;;;32.00;28.00;;;;;2.22;78.50;102407.22;5056236;28;45321;-74
2022/01/29 01:21:38;;;;;;;;;44.00;34.25;;;;;2.03;78.29;102378.84;5056035;28;45461;-73
2022/01/29 01:24:04;;;;;;;;;55.25;41.75;;;;;1.36;78.68;102260.03;5056114;28;45295;-74
2022/01/29 01:26:29;;;;;;;;;40.75;35.25;;;;;2.15;78.96;102394.56;5055676;28;46246;-74
2022/01/29 01:28:55;;;;;;;;;44.25;40.50;;;;;2.13;79.57;102396.97;5055937;28;45662;-74
2022/01/29 01:31:21;;;;;;;;;38.25;30.25;;;;;2.13;78.50;102396.97;5046254;28;45489;-74
2022/01/29 01:33:47;;;;;;;;;37.25;28.50;;;;;1.85;77.83;102346.16;5056663;28;46537;-72
2022/01/29 01:36:15;;;;;;;;;32.50;23.75;;;;;1.75;77.57;102341.81;5055236;28;45371;-74
2022/01/29 01:38:46;;;;;;;;;33.25;27.00;;;;;2.08;77.03;102393.06;5055679;27;45613;-73
2022/01/29 01:41:16;;;;;;;;;34.25;29.00;;;;;2.05;77.31;102395.34;5056037;28;45413;-74
2022/01/29 01:43:41;;;;;;;;;38.25;28.25;;;;;2.05;77.74;102394.44;5055997;27;45256;-74
2022/01/29 01:46:07;;;;;;;;;30.00;27.00;;;;;1.88;77.58;102359.34;5055714;28;46220;-74
2022/01/29 01:48:32;;;;;;;;;30.75;27.00;;;;;2.06;77.63;102384.25;5055603;28;45489;-73
2022/01/29 01:50:58;;;;;;;;;30.00;26.25;;;;;2.01;77.78;102367.47;5055864;28;45448;-74
2022/01/29 01:53:24;;;;;;;;;27.75;23.75;;;;;1.71;77.57;102316.53;5055861;28;45425;-73
2022/01/29 01:55:50;;;;;;;;;26.25;21.50;;;;;2.06;77.50;102383.38;5055236;28;45484;-74
2022/01/29 01:58:17;;;;;;;;;31.00;24.00;;;;;2.01;77.16;102372.63;5055690;28;45445;-73
2022/01/29 02:00:42;;;;;;;;;26.25;23.50;;;;;1.59;76.79;102300.81;5055958;28;45594;-73
2022/01/29 02:03:09;;;;;;;;;29.00;26.50;;;;;2.01;77.33;102375.22;5055690;28;45384;-73
2022/01/29 02:05:35;;;;;;;;;31.25;23.50;;;;;2.02;78.12;102368.38;5055205;28;46053;-73
2022/01/29 02:08:02;;;;;;;;;32.25;28.50;;;;;2.01;77.61;102359.75;5055354;28;45473;-74
2022/01/29 02:10:28;;;;;;;;;33.00;26.00;;;;;1.90;77.54;102345.84;5055375;28;45512;-75
2022/01/29 02:12:58;;;;;;;;;28.25;25.50;;;;;1.70;78.30;102309.56;5055639;28;45578;-75
2022/01/29 02:15:24;;;;;;;;;31.00;27.00;;;;;1.99;78.17;102366.44;5055267;28;45419;-75
2022/01/29 02:17:50;;;;;;;;;30.50;27.00;;;;;1.75;78.26;102329.88;5055156;28;45321;-75
2022/01/29 02:20:22;;;;;;;;;34.00;28.50;;;;;1.41;78.00;102275.91;5053704;28;45338;-75
2022/01/29 02:22:48;;;;;;;;;37.00;29.50;;;;;1.53;78.12;102289.94;5057328;28;45843;-74
2022/01/29 02:25:31;;;;;;;;;35.75;25.75;;;;;1.74;78.43;102340.91;5055302;28;46340;-75
2022/01/29 02:28:20;;;;;;;;;32.00;24.75;;;;;1.81;77.99;102354.38;5052734;28;45926;-75
2022/01/29 02:30:49;;;;;;;;;30.50;27.50;;;;;1.78;78.30;102350.75;5055505;28;45431;-75
2022/01/29 02:33:16;;;;;;;;;30.75;28.75;;;;;1.76;78.32;102354.84;5055431;27;45523;-74
2022/01/29 02:35:45;;;;;;;;;34.75;26.25;;;;;1.75;78.37;102354.69;5055617;28;45966;-75
2022/01/29 02:38:12;;;;;;;;;32.50;26.00;;;;;1.73;77.98;102352.00;5055278;28;45315;-75
2022/01/29 02:40:47;;;;;;;;;31.25;27.25;;;;;1.71;77.82;102352.59;5052721;28;45865;-75
2022/01/29 02:43:19;;;;;;;;;31.50;26.25;;;;;1.67;77.86;102351.44;5055463;28;45529;-75
2022/01/29 02:45:46;;;;;;;;;45.25;38.50;;;;;1.64;78.34;102353.69;5054946;28;46617;-75
2022/01/29 02:48:13;;;;;;;;;82.75;58.75;;;;;1.59;78.09;102349.75;5056267;28;45339;-75
2022/01/29 02:50:40;;;;;;;;;62.00;44.75;;;;;1.62;78.42;102350.06;5059958;28;45541;-75
2022/01/29 02:53:06;;;;;;;;;65.00;50.00;;;;;1.49;78.30;102329.06;5060349;28;45500;-75
2022/01/29 02:55:33;;;;;;;;;81.25;58.50;;;;;1.62;79.23;102356.91;5059779;28;45409;-75
2022/01/29 02:57:59;;;;;;;;;66.50;45.00;;;;;1.52;79.36;102334.50;5059917;28;45381;-75
2022/01/29 03:00:25;;;;;;;;;68.75;54.50;;;;;1.55;79.40;102338.28;5059859;28;45500;-75
2022/01/29 03:02:50;;;;;;;;;59.25;44.50;;;;;1.55;79.46;102332.22;5060280;28;45326;-74
2022/01/29 03:05:16;;;;;;;;;43.00;37.00;;;;;1.15;79.04;102269.19;5060152;28;45963;-75
2022/01/29 03:07:41;;;;;;;;;36.00;32.00;;;;;1.19;79.02;102277.38;5059527;28;45519;-75
2022/01/29 03:10:07;;;;;;;;;40.75;34.25;;;;;1.51;78.26;102343.91;5059672;28;45440;-75
2022/01/29 03:12:33;;;;;;;;;37.50;28.75;;;;;1.45;77.93;102335.56;5059869;28;45302;-74
2022/01/29 03:14:59;;;;;;;;;34.00;30.75;;;;;1.04;77.90;102275.91;5059522;28;45998;-74
2022/01/29 03:17:24;;;;;;;;;35.50;26.50;;;;;1.45;77.74;102337.25;5059659;28;45302;-75
2022/01/29 03:19:53;;;;;;;;;30.25;27.50;;;;;1.44;78.07;102333.78;5059809;28;45374;-75
2022/01/29 03:22:19;;;;;;;;;36.00;29.75;;;;;1.42;77.88;102335.31;5060172;28;45355;-75
2022/01/29 03:24:45;;;;;;;;;31.75;26.25;;;;;1.39;78.40;102341.06;5059803;28;45517;-75
2022/01/29 03:27:11;;;;;;;;;38.25;27.25;;;;;1.08;78.06;102283.16;5059587;28;45445;-74
2022/01/29 03:29:37;;;;;;;;;34.75;29.00;;;;;1.38;78.88;102333.19;5059598;28;45446;-75
2022/01/29 03:32:03;;;;;;;;;35.50;29.50;;;;;1.26;78.17;102314.00;5059830;28;45419;-75
2022/01/29 03:34:28;;;;;;;;;25.75;23.50;;;;;1.36;78.57;102327.88;5059449;28;45410;-75
2022/01/29 03:36:56;;;;;;;;;25.50;22.75;;;;;1.36;78.36;102319.28;5059453;28;45343;-75
2022/01/29 03:39:23;;;;;;;;;33.50;26.75;;;;;1.07;78.63;102285.59;5059510;28;45382;-74
2022/01/29 03:41:49;;;;;;;;;31.25;25.00;;;;;1.28;78.81;102323.69;5059919;28;45395;-74
2022/01/29 03:44:15;;;;;;;;;30.50;26.00;;;;;1.27;79.11;102320.94;5058894;28;46381;-74
2022/01/29 03:46:40;;;;;;;;;33.75;29.25;;;;;1.25;78.96;102323.38;5059180;28;45609;-74
2022/01/29 03:49:06;;;;;;;;;34.50;31.25;;;;;1.22;78.62;102322.19;5059339;28;45428;-74
2022/01/29 03:51:32;;;;;;;;;30.50;22.25;;;;;0.88;78.34;102263.25;5059496;28;45484;-75
2022/01/29 03:53:58;;;;;;;;;23.25;22.25;;;;;1.17;77.91;102319.16;5058799;28;46535;-75
2022/01/29 03:56:23;;;;;;;;;22.25;18.25;;;;;1.15;77.77;102318.09;5057478;28;45474;-75
2022/01/29 03:58:49;;;;;;;;;27.50;23.50;;;;;1.11;77.80;102313.44;5058802;28;45466;-74
2022/01/29 04:01:14;;;;;;;;;35.00;28.25;;;;;1.01;78.43;102292.72;5059095;28;45449;-75
2022/01/29 04:03:40;;;;;;;;;36.75;27.25;;;;;1.17;78.37;102314.00;5057408;28;46143;-75
2022/01/29 04:06:06;;;;;;;;;34.25;30.25;;;;;1.21;78.66;102323.84;5058612;28;45540;-75
2022/01/29 04:08:39;;;;;;;;;39.50;32.00;;;;;1.25;78.93;102318.22;5058908;28;45890;-75
2022/01/29 04:11:05;;;;;;;;;38.25;33.25;;;;;1.23;78.87;102299.16;5059024;28;45343;-74
2022/01/29 04:13:30;;;;;;;;;39.75;35.75;;;;;1.35;79.04;102318.38;5058661;28;46535;-74
2022/01/29 04:15:56;;;;;;;;;50.25;35.50;;;;;1.25;79.47;102301.88;5058668;28;45527;-75
2022/01/29 04:18:22;;;;;;;;;51.00;46.00;;;;;1.37;79.76;102332.28;5059175;28;45441;-75
2022/01/29 04:20:47;;;;;;;;;93.00;64.50;;;;;1.39;79.41;102325.63;5058892;28;45388;-75
2022/01/29 04:23:13;;;;;;;;;40.00;31.00;;;;;1.30;79.34;102322.16;5058582;28;46434;-75
2022/01/29 04:25:38;;;;;;;;;42.25;33.50;;;;;0.91;79.60;102252.31;5058381;28;45486;-75
2022/01/29 04:28:05;;;;;;;;;36.00;30.75;;;;;0.97;79.13;102271.81;5058536;28;45450;-74
2022/01/29 04:30:40;;;;;;;;;95.67;73.00;;;;;1.11;78.56;102295.41;5058778;28;45556;-74
2022/01/29 04:35:43;;;;;;;;;53.50;42.50;;;;;1.11;78.17;102318.56;5058206;28;45530;-75
2022/01/29 04:38:10;;;;;;;;;32.50;28.00;;;;;1.06;78.86;102315.56;5058388;28;45295;-75
2022/01/29 04:40:35;;;;;;;;;35.75;29.00;;;;;1.01;78.58;102314.19;5058534;28;45314;-74
2022/01/29 04:43:04;;;;;;;;;33.25;27.00;;;;;0.99;78.92;102323.44;5057971;28;46185;-75
2022/01/29 04:45:31;;;;;;;;;28.75;25.00;;;;;0.96;78.63;102318.00;5057953;28;45302;-74
2022/01/29 04:47:56;;;;;;;;;29.75;25.25;;;;;0.21;78.91;102195.88;5058412;28;45362;-74
2022/01/29 04:50:22;;;;;;;;;38.50;32.00;;;;;0.49;79.18;102255.13;5058778;28;45366;-75
2022/01/29 04:52:48;;;;;;;;;52.75;42.50;;;;;0.77;78.43;102310.16;5057881;28;45413;-76
2022/01/29 04:55:13;;;;;;;;;45.25;39.00;;;;;0.69;78.79;102299.13;5058005;28;45417;-76
2022/01/29 04:57:41;;;;;;;;;55.75;46.25;;;;;-0.27;78.97;102137.25;5058180;28;45336;-75
2022/01/29 05:00:10;;;;;;;;;65.75;49.50;;;;;0.57;78.85;102290.22;5058385;28;45374;-75
2022/01/29 05:02:36;;;;;;;;;44.50;34.50;;;;;0.75;79.08;102339.97;5057991;28;45307;-75
2022/01/29 05:05:03;;;;;;;;;44.00;36.50;;;;;0.74;79.12;102340.75;5058023;28;45480;-75
2022/01/29 05:07:29;;;;;;;;;43.00;32.25;;;;;0.76;79.16;102341.81;5058032;28;45219;-75
2022/01/29 05:09:55;;;;;;;;;42.00;34.25;;;;;0.76;79.08;102344.38;5058158;28;45617;-75
2022/01/29 05:12:26;;;;;;;;;42.50;35.00;;;;;0.76;78.65;102344.38;5057427;28;45560;-75
2022/01/29 05:15:23;;;;;;;;;44.75;36.75;;;;;0.71;79.15;102340.44;5057909;28;45394;-74
2022/01/29 05:28:33;;;;;;;;;29.50;28.25;;;;;0.60;78.41;102349.69;5057649;28;45472;-75
2022/01/29 05:30:59;;;;;;;;;38.50;32.75;;;;;0.58;79.12;102352.09;5057816;28;45485;-75
2022/01/29 05:33:24;;;;;;;;;34.50;31.25;;;;;0.59;79.30;102353.88;5057705;28;45407;-75
2022/01/29 05:35:50;;;;;;;;;38.75;30.25;;;;;0.59;78.71;102350.41;5057529;28;45291;-74
2022/01/29 05:38:16;;;;;;;;;32.00;30.75;;;;;0.58;78.60;102352.09;5057528;28;45282;-75
2022/01/29 05:40:41;;;;;;;;;30.25;27.00;;;;;0.59;78.74;102345.28;5057572;28;45530;-75
2022/01/29 05:43:07;;;;;;;;;28.00;24.25;;;;;0.27;78.81;102296.72;5057332;28;46048;-74
2022/01/29 05:45:32;;;;;;;;;42.50;30.50;;;;;0.57;78.70;102345.13;5057530;28;45564;-75
2022/01/29 05:47:58;;;;;;;;;32.25;28.75;;;;;0.48;78.54;102335.59;5057662;28;45313;-76
2022/01/29 05:50:23;;;;;;;;;37.00;33.25;;;;;0.55;78.60;102345.72;5056528;28;45566;-75
2022/01/29 05:52:49;;;;;;;;;62.50;50.50;;;;;0.52;78.61;102343.78;5057018;28;45510;-74
2022/01/29 05:55:14;;;;;;;;;31.75;26.75;;;;;0.51;79.01;102344.50;5055747;28;45519;-74
2022/01/29 05:57:40;;;;;;;;;28.25;23.75;;;;;0.28;78.67;102313.03;5057180;28;45220;-75
2022/01/29 06:00:06;;;;;;;;;41.00;33.75;;;;;0.54;79.10;102355.13;5057383;28;45465;-75
2022/01/29 06:02:31;;;;;;;;;44.00;40.25;;;;;0.19;79.34;102289.91;5057009;28;45347;-75
2022/01/29 06:04:57;;;;;;;;;27.25;23.75;;;;;0.64;79.50;102363.72;5057365;28;45434;-74
2022/01/29 06:07:22;;;;;;;;;25.25;22.75;;;;;0.41;78.74;102313.50;5057185;28;45314;-75
2022/01/29 06:09:48;;;;;;;;;24.25;19.50;;;;;0.50;78.28;102335.00;5057400;28;45532;-75
2022/01/29 06:12:14;;;;;;;;;34.50;25.00;;;;;0.21;78.28;102284.94;5056806;28;46010;-75
2022/01/29 06:14:40;;;;;;;;;30.25;24.75;;;;;0.67;78.82;102351.19;5056957;28;45880;-75
2022/01/29 06:17:06;;;;;;;;;31.00;25.00;;;;;0.81;78.63;102376.59;5057072;28;45512;-75
2022/01/29 06:19:31;;;;;;;;;33.50;29.75;;;;;0.77;78.74;102362.50;5057241;28;45433;-75
2022/01/29 06:21:57;;;;;;;;;31.75;27.00;;;;;0.87;78.72;102379.75;5058002;28;45342;-75
2022/01/29 06:24:23;;;;;;;;;30.50;25.00;;;;;0.91;77.73;102374.16;5060276;28;45437;-75
2022/01/29 06:26:48;;;;;;;;;27.75;22.75;;;;;0.74;77.08;102340.75;5060398;28;45350;-76
2022/01/29 06:29:14;;;;;;;;;34.75;25.75;;;;;0.71;77.13;102325.00;5060557;28;45481;-75
2022/01/29 06:31:39;;;;;;;;;33.25;27.25;;;;;0.33;76.93;102252.72;5060343;28;46164;-75
2022/01/29 06:34:05;;;;;;;;;32.50;29.75;;;;;1.08;76.58;102383.53;5060607;28;45322;-76
2022/01/29 06:36:30;;;;;;;;;27.25;25.00;;;;;1.03;76.58;102369.31;5060469;28;45339;-75
2022/01/29 06:38:56;;;;;;;;;35.50;29.50;;;;;1.14;76.65;102379.00;5061034;28;45346;-75
2022/01/29 06:41:22;;;;;;;;;32.75;27.25;;;;;1.17;76.78;102379.31;5060121;28;45394;-74
2022/01/29 06:43:47;;;;;;;;;33.50;28.50;;;;;1.07;76.95;102360.22;5060184;28;45362;-75
2022/01/29 06:46:13;;;;;;;;;36.50;31.00;;;;;1.21;76.72;102387.31;5059020;28;45396;-75
2022/01/29 06:48:39;;;;;;;;;34.50;30.00;;;;;1.07;76.92;102370.50;5058110;28;45467;-74
2022/01/29 06:51:04;;;;;;;;;37.25;32.50;;;;;1.13;76.68;102379.72;5058429;28;45371;-76
2022/01/29 06:53:30;;;;;;;;;30.25;25.50;;;;;0.70;77.04;102320.63;5058368;28;45457;-75
2022/01/29 06:55:55;;;;;;;;;36.50;28.00;;;;;0.98;77.72;102374.00;5058120;28;45458;-75
2022/01/29 06:58:21;;;;;;;;;26.00;23.25;;;;;0.97;78.31;102371.28;5058367;28;45574;-75
2022/01/29 07:00:46;;;;;;;;;30.50;24.50;;;;;0.55;78.22;102291.72;5056562;27;45334;-75
2022/01/29 07:03:12;;;;;;;;;30.00;29.25;;;;;1.16;78.27;102384.28;5058059;28;45500;-75
2022/01/29 07:05:37;;;;;;;;;28.75;25.00;;;;;1.13;77.29;102368.53;5058190;28;45480;-75
2022/01/29 07:08:04;;;;;;;;;35.00;30.25;;;;;1.09;76.86;102361.28;5058305;28;45315;-75
2022/01/29 07:10:30;;;;;;;;;37.50;27.00;;;;;0.85;76.93;102305.75;5058118;28;45388;-74
2022/01/29 07:12:56;;;;;;;;;27.25;24.50;;;;;0.79;77.15;102290.63;5057858;28;45612;-75
2022/01/29 07:15:21;;;;;;;;;29.50;24.25;;;;;1.34;76.23;102383.50;5057956;28;46445;-74
2022/01/29 07:17:47;;;;;;;;;31.50;26.00;;;;;1.38;76.36;102388.16;5058314;28;45734;-75
2022/01/29 07:20:13;;;;;;;;;25.75;22.00;;;;;1.35;76.20;102374.09;5057837;28;45731;-74
2022/01/29 07:22:39;;;;;;;;;31.00;26.75;;;;;1.32;75.91;102374.72;5057698;28;45381;-74
2022/01/29 07:25:06;;;;;;;;;31.25;25.75;;;;;1.29;75.35;102376.06;5057777;28;45491;-74
2022/01/29 07:27:32;;;;;;;;;27.25;23.00;;;;;1.01;75.33;102344.19;5057802;28;45552;-75
2022/01/29 07:29:57;;;;;;;;;23.25;22.00;;;;;1.17;75.78;102387.03;5057789;28;45469;-74
2022/01/29 07:32:23;;;;;;;;;30.50;24.75;;;;;0.94;75.69;102360.72;5057458;28;45533;-75
2022/01/29 07:34:48;;;;;;;;;34.50;25.75;;;;;1.16;76.43;102416.09;5057198;28;45430;-74
2022/01/29 07:37:14;;;;;;;;;24.50;22.25;;;;;0.93;76.24;102376.88;5057865;28;45428;-74
2022/01/29 07:39:39;;;;;;;;;27.25;21.00;;;;;1.12;76.25;102419.13;5057310;28;45592;-74
2022/01/29 07:42:05;;;;;;;;;34.50;28.00;;;;;0.51;76.35;102313.66;5057519;28;46387;-75
2022/01/29 07:44:31;;;;;;;;;34.00;30.00;;;;;1.07;76.24;102425.47;5057628;28;45549;-75
2022/01/29 07:46:58;;;;;;;;;34.75;32.00;;;;;1.03;76.36;102422.44;5053893;28;45428;-74
2022/01/29 07:49:23;;;;;;;;;43.75;38.75;;;;;0.96;76.89;102420.94;5057341;28;45438;-75
2022/01/29 07:51:49;;;;;;;;;24.50;21.50;;;;;0.81;77.16;102385.97;5057365;28;45508;-75
2022/01/29 07:54:14;;;;;;;;;20.75;19.75;;;;;0.93;77.49;102408.66;5057131;28;45374;-74
2022/01/29 07:56:40;;;;;;;;;31.75;23.25;;;;;1.08;77.68;102431.53;5057559;28;45245;-74
2022/01/29 07:59:05;;;;;;;;;32.75;27.50;;;;;1.08;77.40;102428.97;5057044;28;45440;-75
2022/01/29 08:01:31;;;;;;;;;24.25;21.25;;;;;1.01;77.71;102418.81;5057100;28;45465;-74
2022/01/29 08:03:57;;;;;;;;;20.25;19.25;;;;;1.06;77.40;102425.34;5057009;28;45640;-75
2022/01/29 08:06:23;;;;;;;;;22.25;19.00;;;;;1.20;76.83;102437.88;5057214;28;45290;-75
2022/01/29 08:08:50;;;;;;;;;28.75;23.25;;;;;1.06;77.59;102399.59;5054658;28;45562;-75
2022/01/29 08:11:17;;;;;;;;;27.00;25.00;;;;;1.35;77.91;102436.81;5051589;28;45515;-75
2022/01/29 08:13:43;;;;;;;;;31.00;26.25;;;;;1.44;77.56;102438.47;5056960;28;45356;-75
2022/01/29 08:16:09;;;;;;;;;28.00;24.25;;;;;1.48;77.25;102426.03;5057139;28;45397;-75
2022/01/29 08:18:35;;;;;;;;;28.00;23.00;;;;;1.70;76.88;102435.81;5056648;28;45412;-74
2022/01/29 08:21:01;;;;;;;;;37.75;29.75;;;;;1.85;76.71;102442.44;5058866;28;45903;-74
2022/01/29 08:23:26;;;;;;;;;37.75;34.00;;;;;1.99;76.48;102441.19;5058964;28;45633;-75
2022/01/29 08:25:53;;;;;;;;;68.25;51.00;;;;;2.07;76.32;102439.31;5058715;28;45968;-77
2022/01/29 08:28:19;;;;;;;;;39.75;37.25;;;;;2.13;75.75;102440.81;5058394;28;45513;-76
2022/01/29 08:30:44;;;;;;;;;55.25;43.25;;;;;2.21;75.56;102438.97;5058580;28;45323;-76
2022/01/29 08:33:16;;;;;;;;;58.75;47.75;;;;;2.36;75.77;102440.38;5058201;28;45405;-75
2022/01/29 08:35:42;;;;;;;;;58.75;49.50;;;;;2.47;75.44;102437.91;5058413;28;45454;-75
2022/01/29 08:38:07;;;;;;;;;46.00;42.00;;;;;2.70;74.55;102440.91;5058146;28;46154;-76
2022/01/29 08:40:33;;;;;;;;;34.75;30.75;;;;;2.53;73.64;102398.09;5058177;28;45601;-75
2022/01/29 08:42:58;;;;;;;;;27.75;25.50;;;;;2.95;73.75;102441.50;5058635;28;45468;-75
2022/01/29 08:45:24;;;;;;;;;39.25;35.25;;;;;2.90;73.17;102414.34;5057121;28;45420;-74
2022/01/29 08:47:49;;;;;;;;;60.00;48.25;;;;;3.22;73.08;102444.75;5057905;28;45241;-75
2022/01/29 08:50:15;;;;;;;;;63.00;47.00;;;;;3.77;71.82;102433.25;5057912;28;45417;-75
2022/01/29 08:52:41;;;;;;;;;42.50;37.00;;;;;5.36;68.22;102427.66;5057979;28;45473;-75
2022/01/29 08:55:08;;;;;;;;;35.50;31.25;;;;;7.76;62.91;102430.38;5054546;28;45705;-74
2022/01/29 08:57:35;;;;;;;;;30.50;29.00;;;;;9.74;56.03;102372.38;5056448;28;46183;-74
2022/01/29 09:00:02;;;;;;;;;30.75;25.00;;;;;11.63;52.00;102382.59;5057747;28;45406;-74
2022/01/29 09:02:28;;;;;;;;;34.75;32.25;;;;;13.13;46.94;102396.53;5051606;28;45406;-74
2022/01/29 09:04:55;;;;;;;;;46.75;37.25;;;;;14.10;45.65;102403.72;5038119;28;45332;-74
2022/01/29 09:07:21;;;;;;;;;40.50;34.25;;;;;14.84;43.44;102399.09;5056690;28;45338;-74
2022/01/29 09:09:46;;;;;;;;;50.00;40.50;;;;;15.55;41.65;102394.94;5056892;28;45429;-73
2022/01/29 09:12:13;;;;;;;;;49.25;38.25;;;;;15.50;40.67;102241.13;5057051;28;45335;-75
2022/01/29 09:14:39;;;;;;;;;46.25;38.00;;;;;16.99;39.26;102396.72;5056086;28;45553;-75
2022/01/29 09:17:06;;;;;;;;;37.75;32.75;;;;;17.33;37.48;102367.81;5056914;28;45951;-74
2022/01/29 09:19:31;;;;;;;;;37.50;32.50;;;;;17.62;36.89;102358.16;5057319;28;45254;-74
2022/01/29 09:21:57;;;;;;;;;29.00;25.50;;;;;18.07;36.45;102385.06;5057082;28;45469;-74
2022/01/29 09:24:22;;;;;;;;;31.75;27.75;;;;;18.47;36.14;102380.88;5056898;28;45516;-74
2022/01/29 09:26:48;;;;;;;;;29.00;26.25;;;;;18.67;36.25;102359.34;5034807;27;46176;-73
2022/01/29 09:29:14;;;;;;;;;31.25;28.75;;;;;19.03;34.47;102384.97;5056268;28;45481;-72
2022/01/29 09:31:39;;;;;;;;;29.75;28.50;;;;;19.05;33.86;102370.91;5056545;28;45479;-74
2022/01/29 09:34:05;;;;;;;;;29.25;26.00;;;;;19.33;33.03;102376.84;5056970;28;45644;-72
2022/01/29 09:36:30;;;;;;;;;34.25;31.50;;;;;19.62;33.11;102385.47;5056871;28;46129;-72
2022/01/29 09:38:56;;;;;;;;;40.00;35.75;;;;;19.97;32.10;102368.53;5056424;28;45466;-72
2022/01/29 09:41:27;;;;;;;;;38.75;35.25;;;;;20.23;32.52;102385.88;5056337;28;45438;-72
2022/01/29 09:43:55;;;;;;;;;32.50;30.00;;;;;20.63;31.74;102385.72;5057494;28;45353;-73
2022/01/29 09:46:21;;;;;;;;;37.00;33.00;;;;;20.89;32.06;102394.19;5056971;28;46101;-72
2022/01/29 09:48:46;;;;;;;;;29.50;29.50;;;;;20.72;31.72;102354.03;5056676;28;45642;-73
2022/01/29 09:51:13;;;;;;;;;31.50;27.00;;;;;21.11;31.79;102390.09;5057172;28;45411;-72
2022/01/29 09:53:45;;;;;;;;;27.75;26.50;;;;;21.37;31.44;102377.22;5056730;28;45440;-74
2022/01/29 09:56:12;;;;;;;;;31.33;28.67;;;;;21.04;32.08;102382.91;5055956;28;45930;-72
2022/01/29 09:58:39;;;;;;;;;26.00;25.50;;;;;20.77;32.19;102384.25;5053508;28;45639;-73
2022/01/29 10:01:05;;;;;;;;;32.25;29.50;;;;;20.73;32.58;102398.34;5057420;28;45437;-73
2022/01/29 10:03:31;;;;;;;;;33.75;30.50;;;;;20.93;31.59;102396.00;5056455;28;45306;-72
2022/01/29 10:06:00;;;;;;;;;29.00;26.25;;;;;21.08;31.59;102387.38;5056248;28;45556;-72
2022/01/29 10:08:27;;;;;;;;;38.50;32.00;;;;;21.15;30.49;102397.25;5056398;28;45713;-72
2022/01/29 10:10:55;;;;;;;;;35.50;33.50;;;;;21.23;31.47;102395.59;5056889;28;45538;-72
2022/01/29 10:13:26;;;;;;;;;27.00;25.50;;;;;21.29;30.86;102396.56;5055698;28;45567;-72
2022/01/29 10:16:03;;;;;;;;;25.33;23.33;;;;;21.09;31.73;102406.88;5056953;28;46129;-72
2022/01/29 10:18:30;;;;;;;;;31.00;27.50;;;;;21.25;31.38;102399.19;5056677;28;45374;-72
2022/01/29 10:21:13;;;;;;;;;28.67;25.33;;;;;21.49;31.26;102399.53;5056780;28;45400;-72
2022/01/29 10:23:40;;;;;;;;;28.75;26.25;;;;;21.55;31.37;102394.34;5056917;28;45472;-72
2022/01/29 10:26:10;;;;;;;;;32.25;26.50;;;;;21.53;30.03;102386.31;5056713;28;45515;-72
2022/01/29 10:28:37;;;;;;;;;26.75;26.25;;;;;21.52;30.38;102395.16;5057092;28;45314;-72
2022/01/29 10:31:06;;;;;;;;;36.75;32.75;;;;;21.60;30.81;102396.16;5057279;28;45509;-72
2022/01/29 10:33:35;;;;;;;;;38.50;31.00;;;;;21.50;31.62;102393.34;5057059;28;45630;-72
2022/01/29 10:36:03;;;;;;;;;31.50;30.50;;;;;21.47;32.11;102404.84;5056685;28;46092;-72
2022/01/29 10:39:00;;;;;;;;;34.50;29.50;;;;;21.43;31.22;102411.88;5056544;28;45398;-72
2022/01/29 10:41:29;;;;;;;;;27.67;24.00;;;;;21.26;31.83;102418.69;5051052;28;45388;-72
2022/01/29 10:44:19;;;;;;;;;33.00;30.75;;;;;21.08;31.54;102421.94;5056827;28;45165;-72
2022/01/29 10:46:54;;;;;;;;;33.50;31.00;;;;;21.15;32.07;102414.94;5056291;28;45992;-72
2022/01/29 10:49:25;;;;;;;;;32.50;28.00;;;;;21.13;31.58;102422.00;5056497;28;45403;-72
2022/01/29 10:52:02;;;;;;;;;30.00;28.75;;;;;21.00;31.41;102421.78;5056621;28;45501;-72
2022/01/29 10:54:29;;;;;;;;;30.50;29.25;;;;;20.78;31.56;102393.97;5056647;28;45474;-72
2022/01/29 10:56:57;;;;;;;;;26.50;24.25;;;;;20.50;32.42;102397.88;5055980;28;45465;-73
2022/01/29 10:59:25;;;;;;;;;26.50;25.25;;;;;20.59;32.37;102399.81;5056262;28;45410;-72
2022/01/29 11:01:52;;;;;;;;;32.25;31.00;;;;;20.26;31.67;102359.38;5056267;28;45600;-72
2022/01/29 11:04:18;;;;;;;;;31.50;29.50;;;;;20.23;32.65;102398.22;5055150;28;45480;-72
2022/01/29 11:06:46;;;;;;;;;32.25;30.50;;;;;19.99;33.18;102378.31;5055621;28;45881;-76
2022/01/29 11:09:13;;;;;;;;;36.50;31.75;;;;;19.97;33.07;102401.25;5057637;28;45338;-72
2022/01/29 11:11:45;;;;;;;;;36.50;32.00;;;;;19.66;33.56;102407.66;5060301;28;45505;-72
2022/01/29 11:14:14;;;;;;;;;37.50;32.00;;;;;19.31;33.75;102367.97;5059903;28;45631;-72
2022/01/29 11:16:42;;;;;;;;;36.75;33.00;;;;;19.36;34.35;102389.25;5059897;28;46235;-72
2022/01/29 11:19:07;;;;;;;;;35.00;32.00;;;;;19.12;34.56;102401.09;5059647;28;45509;-72
2022/01/29 11:21:35;;;;;;;;;44.50;33.75;;;;;18.77;35.14;102379.88;5059378;28;45454;-72
2022/01/29 11:24:02;;;;;;;;;36.25;30.75;;;;;18.32;36.01;102385.75;5059556;28;45524;-72
2022/01/29 11:26:30;;;;;;;;;32.75;30.00;;;;;17.40;37.16;102352.22;5059094;28;45534;-72